Time;durP1;ratioP1;P1;durP2;ratioP2;P2;SDS_P1;SDS_P2;PMS_P1;PMS_P2;Temp;Humidity;BMP_temperature;BMP_pressure;BME280_temperature;BME280_humidity;BME280_pressure;Samples;Min_cycle;Max_cycle;Signal;HPM_P1;HPM_P2
2021/09/28 00:01:17;;;;;;;23.05;11.52;;;;;;;;;;6171996;28;20166;-82
2021/09/28 00:04:19;;;;;;;21.80;11.23;;;;;;;;;;6171638;28;20445;-81
2021/09/28 00:07:21;;;;;;;23.88;11.40;;;;;;;;;;6173764;28;20098;-82
2021/09/28 00:10:23;;;;;;;24.45;11.82;;;;;;;;;;6185838;28;20051;-83
2021/09/28 00:13:24;;;;;;;25.60;11.70;;;;;;;;;;6183822;28;20054;-83
2021/09/28 00:16:30;;;;;;;20.48;11.50;;;;;;;;;;6192349;28;20046;-82
2021/09/28 00:19:32;;;;;;;23.83;12.30;;;;;;;;;;6196199;28;20042;-83
2021/09/28 00:22:34;;;;;;;23.33;11.77;;;;;;;;;;6195523;28;20120;-81
2021/09/28 00:25:35;;;;;;;28.37;11.30;;;;;;;;;;6192878;28;20125;-83
2021/09/28 00:28:37;;;;;;;23.42;11.45;;;;;;;;;;6194708;28;20038;-82
2021/09/28 00:31:39;;;;;;;20.63;10.77;;;;;;;;;;6196955;28;20133;-81
2021/09/28 00:34:42;;;;;;;23.45;11.77;;;;;;;;;;6189032;28;20057;-84
2021/09/28 00:37:43;;;;;;;;;;;;;;;;;;6199474;28;20043;-83
2021/09/28 00:40:45;;;;;;;23.10;11.35;;;;;;;;;;6194610;28;19921;-81
2021/09/28 00:43:54;;;;;;;20.80;10.95;;;;;;;;;;6199687;28;20411;-84
2021/09/28 00:46:55;;;;;;;27.10;12.20;;;;;;;;;;6225962;28;20042;-80
2021/09/28 00:49:57;;;;;;;23.52;11.05;;;;;;;;;;6197954;28;20392;-83
2021/09/28 00:52:59;;;;;;;26.02;11.55;;;;;;;;;;6194749;28;20057;-83
2021/09/28 00:56:01;;;;;;;25.25;12.18;;;;;;;;;;6179161;28;20047;-81
2021/09/28 00:59:05;;;;;;;25.23;12.00;;;;;;;;;;6202169;28;20038;-81
2021/09/28 01:02:11;;;;;;;27.35;12.65;;;;;;;;;;6195057;28;20092;-81
2021/09/28 01:05:14;;;;;;;25.90;12.75;;;;;;;;;;6200755;28;20144;-82
2021/09/28 01:08:15;;;;;;;26.55;12.98;;;;;;;;;;6196234;28;20074;-81
2021/09/28 01:11:17;;;;;;;26.42;11.77;;;;;;;;;;6198424;28;20496;-81
2021/09/28 01:14:19;;;;;;;25.80;12.23;;;;;;;;;;6232707;28;20415;-84
2021/09/28 01:17:21;;;;;;;26.38;13.25;;;;;;;;;;6200720;28;20110;-82
2021/09/28 01:20:23;;;;;;;27.30;12.57;;;;;;;;;;6230444;28;20161;-82
2021/09/28 01:23:24;;;;;;;29.92;12.98;;;;;;;;;;6199500;28;20061;-81
2021/09/28 01:26:26;;;;;;;28.92;13.65;;;;;;;;;;6199048;28;20062;-80
2021/09/28 01:29:29;;;;;;;26.95;12.38;;;;;;;;;;6199626;28;20061;-81
2021/09/28 01:32:30;;;;;;;29.17;13.18;;;;;;;;;;6200134;28;20042;-81
2021/09/28 01:35:32;;;;;;;26.77;12.40;;;;;;;;;;6182817;28;20619;-84
2021/09/28 01:38:34;;;;;;;23.60;11.77;;;;;;;;;;6229111;28;20057;-83
2021/09/28 01:41:35;;;;;;;26.70;12.27;;;;;;;;;;6198524;28;20044;-81
2021/09/28 01:44:37;;;;;;;27.70;12.32;;;;;;;;;;6198665;28;20072;-82
2021/09/28 01:47:39;;;;;;;29.77;13.63;;;;;;;;;;6196371;28;20050;-81
2021/09/28 01:50:41;;;;;;;28.38;13.30;;;;;;;;;;6200504;28;20038;-82
2021/09/28 01:53:42;;;;;;;31.27;12.95;;;;;;;;;;6200950;28;20125;-82
2021/09/28 01:56:44;;;;;;;31.38;14.02;;;;;;;;;;6195946;28;20062;-81
2021/09/28 01:59:46;;;;;;;31.80;13.80;;;;;;;;;;6200786;28;20086;-80
2021/09/28 02:02:47;;;;;;;31.98;13.35;;;;;;;;;;6199476;28;20039;-82
2021/09/28 02:05:49;;;;;;;27.70;12.18;;;;;;;;;;6199691;28;20050;-81
2021/09/28 02:08:51;;;;;;;28.98;12.15;;;;;;;;;;6202732;28;20053;-80
2021/09/28 02:11:53;;;;;;;31.58;12.93;;;;;;;;;;6200760;28;20506;-82
2021/09/28 02:14:54;;;;;;;27.00;11.95;;;;;;;;;;6200114;28;20109;-83
2021/09/28 02:17:56;;;;;;;33.13;13.60;;;;;;;;;;6188625;28;20153;-81
2021/09/28 02:20:58;;;;;;;32.03;14.50;;;;;;;;;;6198674;28;20514;-82
2021/09/28 02:23:59;;;;;;;33.88;13.52;;;;;;;;;;6226864;28;20130;-80
2021/09/28 02:27:01;;;;;;;33.65;14.20;;;;;;;;;;6209432;28;20204;-82
2021/09/28 02:30:04;;;;;;;36.38;14.55;;;;;;;;;;6213165;28;20129;-80
2021/09/28 02:33:06;;;;;;;35.35;14.63;;;;;;;;;;6194992;28;20062;-82
2021/09/28 02:36:07;;;;;;;33.85;14.15;;;;;;;;;;6179643;28;20050;-82
2021/09/28 02:39:09;;;;;;;27.55;12.55;;;;;;;;;;6198224;28;20096;-83
2021/09/28 02:42:11;;;;;;;23.88;10.43;;;;;;;;;;6195565;28;20525;-80
2021/09/28 02:45:12;;;;;;;21.48;11.25;;;;;;;;;;6195136;28;20053;-80
2021/09/28 02:48:15;;;;;;;24.33;11.40;;;;;;;;;;6195420;28;20050;-83
2021/09/28 02:51:17;;;;;;;27.98;11.73;;;;;;;;;;6197280;28;20104;-81
2021/09/28 02:54:18;;;;;;;26.48;12.02;;;;;;;;;;6229878;28;20082;-81
2021/09/28 02:57:20;;;;;;;25.67;12.25;;;;;;;;;;6195294;28;20081;-82
2021/09/28 03:00:22;;;;;;;32.38;12.30;;;;;;;;;;6195191;28;20062;-80
2021/09/28 03:03:23;;;;;;;25.63;11.65;;;;;;;;;;6193759;28;20423;-80
2021/09/28 03:06:25;;;;;;;29.27;12.80;;;;;;;;;;6197434;28;20702;-82
2021/09/28 03:09:27;;;;;;;28.02;13.13;;;;;;;;;;6199834;28;20136;-80
2021/09/28 03:12:28;;;;;;;29.15;12.13;;;;;;;;;;6202484;28;20133;-80
2021/09/28 03:15:30;;;;;;;25.00;12.48;;;;;;;;;;6195557;28;20158;-83
2021/09/28 03:18:32;;;;;;;27.70;12.35;;;;;;;;;;6179034;28;20050;-82
2021/09/28 03:21:33;;;;;;;30.30;12.95;;;;;;;;;;6213087;28;20127;-81
2021/09/28 03:24:35;;;;;;;30.77;12.68;;;;;;;;;;6194100;28;20631;-80
2021/09/28 03:27:37;;;;;;;28.58;13.15;;;;;;;;;;6190753;28;20048;-82
2021/09/28 03:30:38;;;;;;;29.95;12.90;;;;;;;;;;6195704;28;20042;-84
2021/09/28 03:33:40;;;;;;;26.83;12.05;;;;;;;;;;6197272;28;20500;-80
2021/09/28 03:36:42;;;;;;;29.77;12.57;;;;;;;;;;6199365;28;20042;-80
2021/09/28 03:39:43;;;;;;;24.73;11.32;;;;;;;;;;6231450;28;20092;-81
2021/09/28 03:42:46;;;;;;;31.08;13.73;;;;;;;;;;6193848;28;20133;-82
2021/09/28 03:45:49;;;;;;;25.13;12.60;;;;;;;;;;6225808;28;20600;-81
2021/09/28 03:48:50;;;;;;;27.73;11.98;;;;;;;;;;6176393;28;20043;-79
2021/09/28 03:51:52;;;;;;;25.27;11.32;;;;;;;;;;6187265;28;20069;-83
2021/09/28 03:54:54;;;;;;;26.67;11.60;;;;;;;;;;6190930;28;20535;-81
2021/09/28 03:57:55;;;;;;;26.58;12.27;;;;;;;;;;6178049;28;20058;-81
2021/09/28 04:00:57;;;;;;;25.35;12.18;;;;;;;;;;6180649;28;20120;-83
2021/09/28 04:03:59;;;;;;;23.30;11.75;;;;;;;;;;6220647;28;20180;-80
2021/09/28 04:07:01;;;;;;;29.33;11.77;;;;;;;;;;6190856;28;20046;-82
2021/09/28 04:10:04;;;;;;;28.42;12.57;;;;;;;;;;6192686;28;20043;-82
2021/09/28 04:13:08;;;;;;;30.10;13.10;;;;;;;;;;6190101;28;20492;-80
2021/09/28 04:16:10;;;;;;;24.27;12.70;;;;;;;;;;6190368;28;20054;-84
2021/09/28 04:19:12;;;;;;;28.53;11.83;;;;;;;;;;6175976;28;20050;-84
2021/09/28 04:22:13;;;;;;;28.15;12.65;;;;;;;;;;6174860;28;20049;-83
2021/09/28 04:25:15;;;;;;;28.50;12.52;;;;;;;;;;6189582;28;20133;-81
2021/09/28 04:28:17;;;;;;;29.85;13.18;;;;;;;;;;6178401;28;20046;-79
2021/09/28 04:31:18;;;;;;;27.55;13.15;;;;;;;;;;6175792;28;20042;-82
2021/09/28 04:34:20;;;;;;;32.83;14.68;;;;;;;;;;6186350;28;20039;-80
2021/09/28 04:37:22;;;;;;;31.48;13.20;;;;;;;;;;6200849;28;20049;-81
2021/09/28 04:40:23;;;;;;;37.40;14.88;;;;;;;;;;6196284;28;20050;-83
2021/09/28 04:43:25;;;;;;;35.03;13.57;;;;;;;;;;6196566;28;20061;-82
2021/09/28 04:46:28;;;;;;;34.28;13.65;;;;;;;;;;6191863;28;20511;-81
2021/09/28 04:49:29;;;;;;;36.50;14.27;;;;;;;;;;6193095;28;20034;-82
2021/09/28 04:52:31;;;;;;;42.38;15.07;;;;;;;;;;6199340;28;20053;-79
2021/09/28 04:55:33;;;;;;;51.38;15.85;;;;;;;;;;6175643;28;20066;-81
2021/09/28 04:58:35;;;;;;;49.78;14.98;;;;;;;;;;6209717;28;20137;-83
2021/09/28 05:01:36;;;;;;;99.10;16.48;;;;;;;;;;6190989;28;20046;-81
2021/09/28 05:04:38;;;;;;;46.47;15.05;;;;;;;;;;6202197;28;20050;-80
2021/09/28 05:07:40;;;;;;;35.58;14.23;;;;;;;;;;6203439;28;20496;-79
2021/09/28 05:10:41;;;;;;;25.05;11.15;;;;;;;;;;6231095;28;20046;-80
2021/09/28 05:13:43;;;;;;;27.38;11.05;;;;;;;;;;6201706;28;20089;-81
2021/09/28 05:16:45;;;;;;;21.20;10.60;;;;;;;;;;6192783;28;20066;-82
2021/09/28 05:19:46;;;;;;;18.88;9.48;;;;;;;;;;6206871;28;20053;-80
2021/09/28 05:22:51;;;;;;;18.90;8.98;;;;;;;;;;6176249;28;20051;-81
2021/09/28 05:25:53;;;;;;;29.40;11.93;;;;;;;;;;6177227;28;20053;-80
2021/09/28 05:28:54;;;;;;;29.33;11.98;;;;;;;;;;6200829;28;20104;-81
2021/09/28 05:31:56;;;;;;;36.60;12.63;;;;;;;;;;6225669;28;20133;-83
2021/09/28 05:34:57;;;;;;;73.53;14.80;;;;;;;;;;6200236;28;20038;-80
2021/09/28 05:37:59;;;;;;;40.15;14.45;;;;;;;;;;6199210;28;20046;-83
2021/09/28 05:41:06;;;;;;;52.63;14.80;;;;;;;;;;6194576;28;20049;-82
2021/09/28 05:44:08;;;;;;;129.43;17.65;;;;;;;;;;6200351;28;20048;-81
2021/09/28 05:47:09;;;;;;;140.45;19.00;;;;;;;;;;6187776;28;20038;-83
2021/09/28 05:50:11;;;;;;;45.90;14.45;;;;;;;;;;6192865;28;20042;-83
2021/09/28 05:53:13;;;;;;;45.83;13.77;;;;;;;;;;6198275;28;20491;-81
2021/09/28 05:56:15;;;;;;;86.07;15.43;;;;;;;;;;6190952;28;20121;-79
2021/09/28 05:59:17;;;;;;;83.50;13.52;;;;;;;;;;6232244;28;20221;-80
2021/09/28 06:02:19;;;;;;;55.33;11.93;;;;;;;;;;6190484;28;20061;-81
2021/09/28 06:05:23;;;;;;;38.50;10.75;;;;;;;;;;6202800;28;20053;-79
2021/09/28 06:08:25;;;;;;;34.85;10.23;;;;;;;;;;6176772;28;20102;-83
2021/09/28 06:11:27;;;;;;;38.00;10.13;;;;;;;;;;6201026;28;20066;-80
2021/09/28 06:14:29;;;;;;;20.07;8.07;;;;;;;;;;6199098;28;20050;-80
2021/09/28 06:17:30;;;;;;;21.70;8.40;;;;;;;;;;6198075;28;20038;-81
2021/09/28 06:20:32;;;;;;;18.73;7.97;;;;;;;;;;6194640;28;20048;-82
2021/09/28 06:23:33;;;;;;;35.38;9.05;;;;;;;;;;6177661;28;20050;-79
2021/09/28 06:26:35;;;;;;;36.78;10.07;;;;;;;;;;6194057;28;20053;-80
2021/09/28 06:29:37;;;;;;;52.97;10.75;;;;;;;;;;6193483;28;20042;-79
2021/09/28 06:32:38;;;;;;;30.02;10.23;;;;;;;;;;6192211;28;20072;-81
2021/09/28 06:35:40;;;;;;;21.08;8.05;;;;;;;;;;6225014;28;20034;-80
2021/09/28 06:38:42;;;;;;;20.60;8.25;;;;;;;;;;6198311;28;20078;-81
2021/09/28 06:41:44;;;;;;;24.50;8.40;;;;;;;;;;6178581;28;20456;-81
2021/09/28 06:44:46;;;;;;;35.50;9.88;;;;;;;;;;6197576;28;20050;-80
2021/09/28 06:47:47;;;;;;;27.52;9.18;;;;;;;;;;6196314;28;20050;-83
2021/09/28 06:50:49;;;;;;;17.00;9.07;;;;;;;;;;6198624;28;20061;-84
2021/09/28 06:53:51;;;;;;;40.05;9.40;;;;;;;;;;6196691;28;20058;-82
2021/09/28 06:56:52;;;;;;;17.02;8.82;;;;;;;;;;6194626;28;20046;-80
2021/09/28 06:59:54;;;;;;;21.13;8.85;;;;;;;;;;6193859;28;20042;-83
2021/09/28 07:02:56;;;;;;;25.33;8.90;;;;;;;;;;6191892;28;20046;-82
2021/09/28 07:05:58;;;;;;;37.25;9.25;;;;;;;;;;6213286;28;20045;-82
2021/09/28 07:09:00;;;;;;;17.77;8.52;;;;;;;;;;6207146;28;20057;-82
2021/09/28 07:12:02;;;;;;;17.65;8.93;;;;;;;;;;6188921;28;20046;-82
2021/09/28 07:15:05;;;;;;;19.40;8.50;;;;;;;;;;6209755;28;20041;-80
2021/09/28 07:18:07;;;;;;;28.02;10.07;;;;;;;;;;6196415;28;20136;-81
2021/09/28 07:21:09;;;;;;;17.10;8.98;;;;;;;;;;6193735;28;20060;-82
2021/09/28 07:24:22;;;;;;;13.10;7.80;;;;;;;;;;6210926;28;20065;-78
2021/09/28 07:27:24;;;;;;;24.33;7.97;;;;;;;;;;6200411;28;20061;-81
2021/09/28 07:30:30;;;;;;;13.07;7.40;;;;;;;;;;6192574;28;20117;-80
2021/09/28 07:33:36;;;;;;;11.65;7.65;;;;;;;;;;6208887;28;20056;-81
2021/09/28 07:36:46;;;;;;;15.65;7.30;;;;;;;;;;6202723;28;20049;-81
2021/09/28 07:39:47;;;;;;;13.88;7.57;;;;;;;;;;6188691;28;20050;-80
2021/09/28 07:42:49;;;;;;;9.20;6.22;;;;;;;;;;6224302;28;20070;-82
2021/09/28 07:45:51;;;;;;;9.88;5.72;;;;;;;;;;6195848;28;20046;-82
2021/09/28 07:48:52;;;;;;;9.70;4.97;;;;;;;;;;6193856;28;20054;-83
2021/09/28 07:51:54;;;;;;;7.97;5.00;;;;;;;;;;6193599;28;20038;-83
2021/09/28 07:54:56;;;;;;;6.88;3.72;;;;;;;;;;6189477;28;20042;-84
2021/09/28 07:57:58;;;;;;;8.90;5.85;;;;;;;;;;6191742;28;20043;-82
2021/09/28 08:00:59;;;;;;;9.85;5.70;;;;;;;;;;6210879;28;20049;-83
2021/09/28 08:04:02;;;;;;;9.48;5.68;;;;;;;;;;6182267;28;20133;-80
2021/09/28 08:07:07;;;;;;;9.32;5.63;;;;;;;;;;6194288;28;20553;-84
2021/09/28 08:10:11;;;;;;;7.53;3.97;;;;;;;;;;6199530;28;20058;-80
2021/09/28 08:13:13;;;;;;;7.05;3.80;;;;;;;;;;6206727;28;20039;-83
2021/09/28 08:16:15;;;;;;;7.90;4.53;;;;;;;;;;6193365;28;20049;-83
2021/09/28 08:19:17;;;;;;;5.80;3.22;;;;;;;;;;6194917;28;20042;-82
2021/09/28 08:22:19;;;;;;;7.60;3.90;;;;;;;;;;6208019;28;20061;-81
2021/09/28 08:25:24;;;;;;;6.03;2.08;;;;;;;;;;6218610;28;20132;-83
2021/09/28 08:31:48;;;;;;;6.43;2.05;;;;;;;;;;6196945;28;20058;-83
2021/09/28 08:34:51;;;;;;;6.50;1.50;;;;;;;;;;6202069;28;20501;-82
2021/09/28 08:37:53;;;;;;;6.57;2.00;;;;;;;;;;6187688;28;20046;-81
2021/09/28 08:40:57;;;;;;;5.18;1.50;;;;;;;;;;6192741;28;20039;-82
2021/09/28 08:43:58;;;;;;;6.07;1.90;;;;;;;;;;6174955;28;20090;-82
2021/09/28 08:47:00;;;;;;;5.32;2.13;;;;;;;;;;6182776;28;20042;-82
2021/09/28 08:50:03;;;;;;;4.68;1.73;;;;;;;;;;6196182;28;20464;-80
2021/09/28 08:53:08;;;;;;;4.63;1.85;;;;;;;;;;6211943;28;20637;-82
2021/09/28 08:56:11;;;;;;;5.72;1.73;;;;;;;;;;6197646;28;20049;-79
2021/09/28 08:59:18;;;;;;;5.63;1.60;;;;;;;;;;6193644;28;20053;-83
2021/09/28 09:02:19;;;;;;;4.28;1.65;;;;;;;;;;6199225;28;20061;-80
2021/09/28 09:05:22;;;;;;;8.00;1.83;;;;;;;;;;6171905;28;20054;-81
2021/09/28 09:08:35;;;;;;;5.38;1.80;;;;;;;;;;6228480;28;20069;-83
2021/09/28 09:11:41;;;;;;;5.88;1.60;;;;;;;;;;6193606;28;20058;-80
2021/09/28 09:14:43;;;;;;;3.88;1.17;;;;;;;;;;6195964;28;20051;-83
2021/09/28 09:17:46;;;;;;;7.88;1.70;;;;;;;;;;6221480;28;20042;-83
2021/09/28 09:20:48;;;;;;;7.45;1.75;;;;;;;;;;6185640;28;20050;-82
2021/09/28 09:23:53;;;;;;;4.90;1.50;;;;;;;;;;6190141;28;20447;-80
2021/09/28 09:26:54;;;;;;;5.97;1.75;;;;;;;;;;6192789;28;20043;-80
2021/09/28 09:30:18;;;;;;;4.05;1.42;;;;;;;;;;6206471;28;20058;-81
2021/09/28 09:33:25;;;;;;;7.75;1.65;;;;;;;;;;6178973;28;20939;-84
2021/09/28 09:36:27;;;;;;;4.50;1.40;;;;;;;;;;6234368;28;20050;-80
2021/09/28 09:39:50;;;;;;;5.50;1.50;;;;;;;;;;6214399;28;20061;-83
2021/09/28 09:42:54;;;;;;;4.63;1.23;;;;;;;;;;6199824;28;20052;-84
2021/09/28 09:46:06;;;;;;;4.88;1.50;;;;;;;;;;6205929;28;20457;-81
2021/09/28 09:49:09;;;;;;;5.15;1.10;;;;;;;;;;6205181;28;20093;-82
2021/09/28 09:52:11;;;;;;;8.32;1.17;;;;;;;;;;6217547;28;20049;-80
2021/09/28 09:55:31;;;;;;;5.45;1.40;;;;;;;;;;6200916;28;20039;-82
2021/09/28 09:58:32;;;;;;;7.70;1.10;;;;;;;;;;6187572;28;20518;-82
2021/09/28 10:01:35;;;;;;;6.97;1.67;;;;;;;;;;6211689;28;20046;-82
2021/09/28 10:04:37;;;;;;;6.63;1.25;;;;;;;;;;6197308;28;20054;-85
2021/09/28 10:07:41;;;;;;;5.65;1.33;;;;;;;;;;6200658;28;20500;-82
2021/09/28 10:10:44;;;;;;;5.38;1.42;;;;;;;;;;6214950;28;20050;-82
2021/09/28 10:13:53;;;;;;;8.70;1.53;;;;;;;;;;6199843;28;20503;-81
2021/09/28 10:16:56;;;;;;;5.15;1.25;;;;;;;;;;6186506;28;20046;-82
2021/09/28 10:20:03;;;;;;;6.18;1.30;;;;;;;;;;6196882;28;20046;-83
2021/09/28 10:23:20;;;;;;;3.88;1.00;;;;;;;;;;6203943;28;20442;-81
2021/09/28 10:26:22;;;;;;;6.38;1.17;;;;;;;;;;6215513;28;20106;-83
2021/09/28 10:29:47;;;;;;;5.90;1.30;;;;;;;;;;6197640;28;20074;-80
2021/09/28 10:32:49;;;;;;;7.90;1.60;;;;;;;;;;6198085;28;20089;-83
2021/09/28 10:35:57;;;;;;;3.80;0.90;;;;;;;;;;6201418;28;20061;-81
2021/09/28 10:39:00;;;;;;;4.95;1.55;;;;;;;;;;6184835;28;20117;-83
2021/09/28 10:42:02;;;;;;;5.93;1.20;;;;;;;;;;6189684;28;20047;-83
2021/09/28 10:45:15;;;;;;;9.90;1.60;;;;;;;;;;6200347;28;20062;-81
2021/09/28 10:48:26;;;;;;;10.48;1.98;;;;;;;;;;6185552;28;20052;-80
2021/09/28 10:51:27;;;;;;;5.28;1.15;;;;;;;;;;6202264;28;20054;-79
2021/09/28 10:54:29;;;;;;;6.63;1.20;;;;;;;;;;6236356;28;20053;-79
2021/09/28 10:58:01;;;;;;;9.43;1.60;;;;;;;;;;6223697;28;20085;-81
2021/09/28 11:01:04;;;;;;;5.85;1.13;;;;;;;;;;6180399;28;21543;-81
2021/09/28 11:04:16;;;;;;;7.20;1.60;;;;;;;;;;6228293;28;20085;-79
2021/09/28 11:07:19;;;;;;;2.70;1.35;;;;;;;;;;6200806;28;20081;-83
2021/09/28 11:10:21;;;;;;;6.93;1.27;;;;;;;;;;6201479;28;20046;-83
2021/09/28 11:13:28;;;;;;;5.30;1.67;;;;;;;;;;6215971;28;20054;-79
2021/09/28 11:16:48;;;;;;;10.32;2.42;;;;;;;;;;6196685;28;20054;-80
2021/09/28 11:19:50;;;;;;;6.78;1.40;;;;;;;;;;6197922;28;20057;-80
2021/09/28 11:23:08;;;;;;;4.70;1.30;;;;;;;;;;6197581;28;20455;-77
2021/09/28 11:26:13;;;;;;;3.85;1.15;;;;;;;;;;6181192;28;20062;-84
2021/09/28 11:29:21;;;;;;;3.78;1.10;;;;;;;;;;6212926;28;20129;-82
2021/09/28 11:32:22;;;;;;;6.75;1.30;;;;;;;;;;6197128;28;20595;-83
2021/09/28 11:35:24;;;;;;;4.03;1.35;;;;;;;;;;6192851;28;20049;-81
2021/09/28 11:38:28;;;;;;;4.68;1.40;;;;;;;;;;6196104;28;20137;-83
2021/09/28 11:41:34;;;;;;;5.63;1.50;;;;;;;;;;6223479;28;20050;-81
2021/09/28 11:44:40;;;;;;;5.90;1.60;;;;;;;;;;6208513;28;20176;-82
2021/09/28 11:47:42;;;;;;;5.63;1.75;;;;;;;;;;6193161;28;20069;-81
2021/09/28 11:50:44;;;;;;;6.88;1.30;;;;;;;;;;6194641;28;20463;-81
2021/09/28 11:53:47;;;;;;;7.28;1.38;;;;;;;;;;6191795;28;20050;-81
2021/09/28 11:56:49;;;;;;;11.15;1.70;;;;;;;;;;6187066;28;20049;-82
2021/09/28 11:59:51;;;;;;;4.10;1.27;;;;;;;;;;6209444;28;20058;-82
2021/09/28 12:03:06;;;;;;;6.70;1.20;;;;;;;;;;6209945;28;20042;-82
2021/09/28 12:09:19;;;;;;;4.15;1.17;;;;;;;;;;6198819;28;20105;-81
2021/09/28 12:12:28;;;;;;;3.40;1.20;;;;;;;;;;6187418;28;20053;-80
2021/09/28 12:15:30;;;;;;;5.53;1.13;;;;;;;;;;6210464;28;20055;-80
2021/09/28 12:18:33;;;;;;;4.32;1.15;;;;;;;;;;6212781;28;20554;-83
2021/09/28 12:21:34;;;;;;;5.30;1.20;;;;;;;;;;6195977;28;20125;-84
2021/09/28 12:25:32;;;;;;;3.45;1.00;;;;;;;;;;6200597;28;20046;-82
2021/09/28 12:28:41;;;;;;;5.82;1.30;;;;;;;;;;6174072;28;20071;-83
2021/09/28 12:31:42;;;;;;;3.25;1.20;;;;;;;;;;6198311;28;20046;-84
2021/09/28 12:34:56;;;;;;;5.10;1.02;;;;;;;;;;6214038;28;20069;-81
2021/09/28 12:38:07;;;;;;;5.13;1.42;;;;;;;;;;6195388;28;20073;-81
2021/09/28 12:41:09;;;;;;;4.53;1.30;;;;;;;;;;6227368;28;20108;-80
2021/09/28 12:44:22;;;;;;;4.55;1.23;;;;;;;;;;6196135;28;20066;-80
2021/09/28 12:47:29;;;;;;;6.05;1.80;;;;;;;;;;6188750;28;20050;-83
2021/09/28 12:50:33;;;;;;;5.93;1.30;;;;;;;;;;6194605;28;20053;-80
2021/09/28 12:53:41;;;;;;;5.00;1.40;;;;;;;;;;6213026;28;20492;-82
2021/09/28 12:56:42;;;;;;;4.60;1.30;;;;;;;;;;6213556;28;20051;-84
2021/09/28 12:59:46;;;;;;;3.60;1.00;;;;;;;;;;6193797;28;20050;-81
2021/09/28 13:02:48;;;;;;;6.07;1.40;;;;;;;;;;6195069;28;20142;-82
2021/09/28 13:05:57;;;;;;;5.07;1.15;;;;;;;;;;6188087;28;20038;-83
2021/09/28 13:08:58;;;;;;;4.78;1.10;;;;;;;;;;6212592;28;20510;-83
2021/09/28 13:12:01;;;;;;;7.35;1.00;;;;;;;;;;6195828;28;20038;-82
2021/09/28 13:15:03;;;;;;;4.93;1.40;;;;;;;;;;6172753;28;20042;-80
2021/09/28 13:18:04;;;;;;;4.85;1.30;;;;;;;;;;6192588;28;20186;-79
2021/09/28 13:21:06;;;;;;;5.53;1.40;;;;;;;;;;6205961;28;20541;-84
2021/09/28 13:24:08;;;;;;;4.00;1.52;;;;;;;;;;6215230;28;20043;-82
2021/09/28 13:27:13;;;;;;;4.85;1.17;;;;;;;;;;6192880;28;20126;-81
2021/09/28 13:30:15;;;;;;;4.15;1.25;;;;;;;;;;6212321;28;20047;-82
2021/09/28 13:33:17;;;;;;;3.45;1.20;;;;;;;;;;6190022;28;20110;-82
2021/09/28 13:36:20;;;;;;;8.45;1.40;;;;;;;;;;6194284;28;20042;-80
2021/09/28 13:39:22;;;;;;;3.85;1.30;;;;;;;;;;6183079;28;20096;-81
2021/09/28 13:42:24;;;;;;;6.13;1.30;;;;;;;;;;6176593;28;20123;-80
2021/09/28 13:45:25;;;;;;;8.10;1.38;;;;;;;;;;6191849;28;20121;-80
2021/09/28 13:48:27;;;;;;;4.65;1.40;;;;;;;;;;6222681;28;20074;-82
2021/09/28 13:51:29;;;;;;;5.25;1.38;;;;;;;;;;6223425;28;20057;-81
2021/09/28 13:54:30;;;;;;;5.90;1.50;;;;;;;;;;6209618;28;20060;-80
2021/09/28 13:57:33;;;;;;;4.93;1.20;;;;;;;;;;6186401;28;20628;-83
2021/09/28 14:00:35;;;;;;;5.68;1.08;;;;;;;;;;6225373;28;20074;-83
2021/09/28 14:03:37;;;;;;;4.80;1.67;;;;;;;;;;6244198;28;20100;-80
2021/09/28 14:06:38;;;;;;;5.45;1.30;;;;;;;;;;6229593;28;20061;-81
2021/09/28 14:09:41;;;;;;;4.88;1.20;;;;;;;;;;6213808;28;20030;-80
2021/09/28 14:12:43;;;;;;;6.63;1.50;;;;;;;;;;6221094;28;20050;-81
2021/09/28 14:15:45;;;;;;;4.85;1.50;;;;;;;;;;6196536;28;20046;-80
2021/09/28 14:18:48;;;;;;;2.97;1.20;;;;;;;;;;6243594;28;20046;-79
2021/09/28 14:21:50;;;;;;;5.35;1.20;;;;;;;;;;6206705;28;20107;-84
2021/09/28 14:24:52;;;;;;;4.37;1.30;;;;;;;;;;6210036;28;20062;-83
2021/09/28 14:27:53;;;;;;;5.00;1.30;;;;;;;;;;6173765;28;20061;-81
2021/09/28 14:30:55;;;;;;;2.92;1.48;;;;;;;;;;6202935;28;20062;-80
2021/09/28 14:33:58;;;;;;;4.00;1.20;;;;;;;;;;6186698;28;20515;-84
2021/09/28 14:36:59;;;;;;;4.30;1.40;;;;;;;;;;6213045;28;20132;-80
2021/09/28 14:40:01;;;;;;;6.38;1.38;;;;;;;;;;6204713;28;20058;-83
2021/09/28 14:43:03;;;;;;;6.15;1.63;;;;;;;;;;6207834;28;20136;-81
2021/09/28 14:46:08;;;;;;;3.40;1.10;;;;;;;;;;6238532;28;20069;-83
2021/09/28 14:49:10;;;;;;;5.47;1.17;;;;;;;;;;6199760;28;20069;-81
2021/09/28 14:52:12;;;;;;;4.35;1.55;;;;;;;;;;6197078;28;20042;-80
2021/09/28 14:55:13;;;;;;;3.97;1.15;;;;;;;;;;6230657;28;20385;-82
2021/09/28 14:58:15;;;;;;;4.57;1.08;;;;;;;;;;6204001;28;20051;-81
2021/09/28 15:01:18;;;;;;;2.25;1.00;;;;;;;;;;6189568;28;20106;-85
2021/09/28 15:04:20;;;;;;;;;;;;;;;;;;6182027;28;20062;-86
2021/09/28 15:07:21;;;;;;;8.02;1.65;;;;;;;;;;6199425;28;20295;-82
2021/09/28 15:10:24;;;;;;;5.22;1.50;;;;;;;;;;6192453;28;20125;-81
2021/09/28 15:13:26;;;;;;;4.50;1.23;;;;;;;;;;6194113;28;20077;-82
2021/09/28 15:16:28;;;;;;;2.30;0.90;;;;;;;;;;6194616;28;20147;-79
2021/09/28 15:19:30;;;;;;;4.35;0.95;;;;;;;;;;6186657;28;20049;-82
2021/09/28 15:22:31;;;;;;;3.08;0.88;;;;;;;;;;6195293;28;20134;-85
2021/09/28 15:25:33;;;;;;;4.25;1.00;;;;;;;;;;6197873;28;20066;-85
2021/09/28 15:28:35;;;;;;;5.38;1.20;;;;;;;;;;6197694;28;20041;-81
2021/09/28 15:31:37;;;;;;;5.78;1.40;;;;;;;;;;6221850;28;20441;-82
2021/09/28 15:34:38;;;;;;;4.47;1.13;;;;;;;;;;6185740;28;20046;-84
2021/09/28 15:37:40;;;;;;;5.70;1.20;;;;;;;;;;6193306;28;20048;-84
2021/09/28 15:40:41;;;;;;;3.13;0.98;;;;;;;;;;6191456;28;20050;-83
2021/09/28 15:43:43;;;;;;;2.50;0.73;;;;;;;;;;6200137;28;20097;-81
2021/09/28 15:46:46;;;;;;;3.63;0.70;;;;;;;;;;6191993;28;20133;-82
2021/09/28 15:49:47;;;;;;;2.63;0.82;;;;;;;;;;6188253;28;20105;-81
2021/09/28 15:52:49;;;;;;;4.38;1.00;;;;;;;;;;6211118;28;20034;-83
2021/09/28 15:55:50;;;;;;;5.70;1.48;;;;;;;;;;6185365;28;20039;-81
2021/09/28 15:58:52;;;;;;;2.20;0.90;;;;;;;;;;6193095;28;20060;-81
2021/09/28 16:01:54;;;;;;;3.00;1.13;;;;;;;;;;6190245;28;20109;-82
2021/09/28 16:04:56;;;;;;;4.10;1.10;;;;;;;;;;6174950;28;20057;-80
2021/09/28 16:07:57;;;;;;;3.00;0.80;;;;;;;;;;6188695;28;20514;-80
2021/09/28 16:11:07;;;;;;;4.30;1.10;;;;;;;;;;6194600;28;20098;-84
2021/09/28 16:14:09;;;;;;;3.05;0.85;;;;;;;;;;6179156;28;20038;-80
2021/09/28 16:17:14;;;;;;;2.95;1.00;;;;;;;;;;6208760;28;20046;-84
2021/09/28 16:20:16;;;;;;;4.70;1.70;;;;;;;;;;6188589;28;20052;-83
2021/09/28 16:23:18;;;;;;;6.20;1.88;;;;;;;;;;6187005;28;20053;-84
2021/09/28 16:26:25;;;;;;;3.72;1.60;;;;;;;;;;6186946;28;20079;-83
2021/09/28 16:29:26;;;;;;;5.13;1.20;;;;;;;;;;6182199;28;20042;-84
2021/09/28 16:32:28;;;;;;;4.68;1.38;;;;;;;;;;6186424;28;20147;-82
2021/09/28 16:35:30;;;;;;;6.10;1.50;;;;;;;;;;6190739;28;20046;-82
2021/09/28 16:38:33;;;;;;;4.60;1.60;;;;;;;;;;6191882;28;20046;-84
2021/09/28 16:41:35;;;;;;;;;;;;;;;;;;6193143;28;20046;-84
2021/09/28 16:44:36;;;;;;;2.90;0.85;;;;;;;;;;6210071;28;20532;-83
2021/09/28 16:47:38;;;;;;;2.58;0.82;;;;;;;;;;6194391;28;20062;-83
2021/09/28 16:50:39;;;;;;;2.47;0.70;;;;;;;;;;6194471;28;20054;-84
2021/09/28 16:53:47;;;;;;;2.78;1.10;;;;;;;;;;6191282;28;20050;-83
2021/09/28 16:56:48;;;;;;;3.88;1.00;;;;;;;;;;6190904;28;20148;-83
2021/09/28 16:59:50;;;;;;;3.50;1.38;;;;;;;;;;6194040;28;20104;-82
2021/09/28 17:02:52;;;;;;;3.17;1.13;;;;;;;;;;6211796;28;20130;-82
2021/09/28 17:05:54;;;;;;;5.50;1.98;;;;;;;;;;6193274;28;20109;-81
2021/09/28 17:08:55;;;;;;;6.15;1.58;;;;;;;;;;6191489;28;20046;-83
2021/09/28 17:11:57;;;;;;;4.28;1.77;;;;;;;;;;6196486;28;20114;-81
2021/09/28 17:14:59;;;;;;;4.63;1.50;;;;;;;;;;6198453;28;20046;-83
2021/09/28 17:18:01;;;;;;;3.75;1.40;;;;;;;;;;6198436;28;20066;-83
2021/09/28 17:21:03;;;;;;;4.63;1.67;;;;;;;;;;6203130;28;20126;-80
2021/09/28 17:24:06;;;;;;;7.13;1.57;;;;;;;;;;6196962;28;20048;-81
2021/09/28 17:27:12;;;;;;;2.13;1.20;;;;;;;;;;6189813;28;20046;-82
2021/09/28 17:30:15;;;;;;;3.95;2.50;;;;;;;;;;6194691;28;20054;-83
2021/09/28 17:33:17;;;;;;;6.97;1.60;;;;;;;;;;6194434;28;20054;-82
2021/09/28 17:36:20;;;;;;;5.22;1.40;;;;;;;;;;6200455;28;20034;-84
2021/09/28 17:39:24;;;;;;;4.45;1.65;;;;;;;;;;6200648;28;20053;-80
2021/09/28 17:42:26;;;;;;;;;;;;;;;;;;6204255;28;20152;-84
2021/09/28 17:45:32;;;;;;;3.45;1.10;;;;;;;;;;6218826;28;20006;-83
2021/09/28 17:48:34;;;;;;;2.78;1.20;;;;;;;;;;6202228;28;20061;-81
2021/09/28 17:51:38;;;;;;;;;;;;;;;;;;6239069;28;20066;-80
2021/09/28 17:55:02;;;;;;;4.82;1.70;;;;;;;;;;6201485;28;20008;-82
2021/09/28 17:58:02;;;;;;;3.92;1.85;;;;;;;;;;6207446;28;20053;-80
2021/09/28 18:01:04;;;;;;;9.00;5.37;;;;;;;;;;6211916;28;20690;-81
2021/09/28 18:04:06;;;;;;;21.42;13.57;;;;;;;;;;6236802;28;20043;-81
2021/09/28 18:07:08;;;;;;;24.88;14.60;;;;;;;;;;6202903;28;20047;-79
2021/09/28 18:10:10;;;;;;;18.38;10.68;;;;;;;;;;6197864;28;21275;-81
2021/09/28 18:13:12;;;;;;;9.80;6.07;;;;;;;;;;6195717;28;20050;-80